sensor_id;sensor_type;location;lat;lon;timestamp;P1;durP1;ratioP1;P2;durP2;ratioP2
58015;SDS011;43809;52.110;20.964;2023-02-15T00:01:38;28.40;;;14.77;;
58015;SDS011;43809;52.110;20.964;2023-02-15T00:03:38;26.10;;;13.40;;
58015;SDS011;43809;52.110;20.964;2023-02-15T00:05:38;28.23;;;14.02;;
58015;SDS011;43809;52.110;20.964;2023-02-15T00:07:39;29.00;;;14.67;;
58015;SDS011;43809;52.110;20.964;2023-02-15T00:09:40;31.23;;;14.52;;
58015;SDS011;43809;52.110;20.964;2023-02-15T00:11:40;30.67;;;14.63;;
58015;SDS011;43809;52.110;20.964;2023-02-15T00:13:41;34.92;;;15.90;;
58015;SDS011;43809;52.110;20.964;2023-02-15T00:15:41;30.20;;;15.68;;
58015;SDS011;43809;52.110;20.964;2023-02-15T00:17:41;30.23;;;15.68;;
58015;SDS011;43809;52.110;20.964;2023-02-15T00:19:42;30.37;;;15.77;;
58015;SDS011;43809;52.110;20.964;2023-02-15T00:21:42;39.10;;;18.40;;
58015;SDS011;43809;52.110;20.964;2023-02-15T00:23:43;33.42;;;16.60;;
58015;SDS011;43809;52.110;20.964;2023-02-15T00:25:43;30.53;;;14.50;;
58015;SDS011;43809;52.110;20.964;2023-02-15T00:27:43;34.90;;;16.48;;
58015;SDS011;43809;52.110;20.964;2023-02-15T00:29:44;39.85;;;18.92;;
58015;SDS011;43809;52.110;20.964;2023-02-15T00:31:44;35.03;;;17.48;;
58015;SDS011;43809;52.110;20.964;2023-02-15T00:33:44;34.33;;;18.52;;
58015;SDS011;43809;52.110;20.964;2023-02-15T00:35:44;43.20;;;19.67;;
58015;SDS011;43809;52.110;20.964;2023-02-15T00:37:45;36.67;;;18.23;;
58015;SDS011;43809;52.110;20.964;2023-02-15T00:39:45;38.20;;;17.60;;
58015;SDS011;43809;52.110;20.964;2023-02-15T00:41:45;32.60;;;16.23;;
58015;SDS011;43809;52.110;20.964;2023-02-15T00:43:46;31.67;;;15.20;;
58015;SDS011;43809;52.110;20.964;2023-02-15T00:45:46;28.20;;;14.30;;
58015;SDS011;43809;52.110;20.964;2023-02-15T00:47:46;26.23;;;13.48;;
58015;SDS011;43809;52.110;20.964;2023-02-15T00:49:46;20.92;;;11.07;;
58015;SDS011;43809;52.110;20.964;2023-02-15T00:51:46;27.60;;;12.57;;
58015;SDS011;43809;52.110;20.964;2023-02-15T00:53:47;27.58;;;13.68;;
58015;SDS011;43809;52.110;20.964;2023-02-15T00:55:47;27.65;;;13.50;;
58015;SDS011;43809;52.110;20.964;2023-02-15T00:57:47;29.75;;;14.63;;
58015;SDS011;43809;52.110;20.964;2023-02-15T00:59:48;29.67;;;13.45;;
58015;SDS011;43809;52.110;20.964;2023-02-15T01:01:48;24.60;;;12.40;;
58015;SDS011;43809;52.110;20.964;2023-02-15T01:03:48;25.00;;;12.75;;
58015;SDS011;43809;52.110;20.964;2023-02-15T01:05:49;29.17;;;14.07;;
58015;SDS011;43809;52.110;20.964;2023-02-15T01:07:49;24.80;;;13.55;;
58015;SDS011;43809;52.110;20.964;2023-02-15T01:09:49;29.87;;;14.87;;
58015;SDS011;43809;52.110;20.964;2023-02-15T01:11:49;30.50;;;15.03;;
58015;SDS011;43809;52.110;20.964;2023-02-15T01:13:54;24.83;;;12.43;;
58015;SDS011;43809;52.110;20.964;2023-02-15T01:15:54;22.95;;;11.52;;
58015;SDS011;43809;52.110;20.964;2023-02-15T01:17:55;25.63;;;12.52;;
58015;SDS011;43809;52.110;20.964;2023-02-15T01:19:55;21.52;;;11.68;;
58015;SDS011;43809;52.110;20.964;2023-02-15T01:21:55;22.27;;;11.00;;
58015;SDS011;43809;52.110;20.964;2023-02-15T01:23:55;19.27;;;10.23;;
58015;SDS011;43809;52.110;20.964;2023-02-15T01:25:55;22.73;;;10.70;;
58015;SDS011;43809;52.110;20.964;2023-02-15T01:27:55;21.02;;;10.45;;
58015;SDS011;43809;52.110;20.964;2023-02-15T01:29:56;26.63;;;11.95;;
58015;SDS011;43809;52.110;20.964;2023-02-15T01:31:56;23.30;;;10.77;;
58015;SDS011;43809;52.110;20.964;2023-02-15T01:33:56;21.53;;;11.13;;
58015;SDS011;43809;52.110;20.964;2023-02-15T01:35:57;23.98;;;11.52;;
58015;SDS011;43809;52.110;20.964;2023-02-15T01:37:57;22.73;;;11.40;;
58015;SDS011;43809;52.110;20.964;2023-02-15T01:39:58;19.67;;;9.98;;
58015;SDS011;43809;52.110;20.964;2023-02-15T01:42:00;22.73;;;11.32;;
58015;SDS011;43809;52.110;20.964;2023-02-15T01:44:01;21.13;;;10.40;;
58015;SDS011;43809;52.110;20.964;2023-02-15T01:46:01;21.43;;;11.17;;
58015;SDS011;43809;52.110;20.964;2023-02-15T01:48:05;29.50;;;13.73;;
58015;SDS011;43809;52.110;20.964;2023-02-15T01:50:10;25.85;;;12.95;;
58015;SDS011;43809;52.110;20.964;2023-02-15T01:52:20;33.58;;;16.13;;
58015;SDS011;43809;52.110;20.964;2023-02-15T01:54:25;37.25;;;17.52;;
58015;SDS011;43809;52.110;20.964;2023-02-15T01:56:28;30.40;;;14.48;;
58015;SDS011;43809;52.110;20.964;2023-02-15T01:58:29;31.90;;;14.88;;
58015;SDS011;43809;52.110;20.964;2023-02-15T02:00:30;27.02;;;13.05;;
58015;SDS011;43809;52.110;20.964;2023-02-15T02:02:31;21.92;;;12.30;;
58015;SDS011;43809;52.110;20.964;2023-02-15T02:04:38;22.33;;;11.15;;
58015;SDS011;43809;52.110;20.964;2023-02-15T02:06:39;19.60;;;10.35;;
58015;SDS011;43809;52.110;20.964;2023-02-15T02:08:40;22.15;;;10.60;;
58015;SDS011;43809;52.110;20.964;2023-02-15T02:10:40;20.13;;;10.23;;
58015;SDS011;43809;52.110;20.964;2023-02-15T02:12:40;20.30;;;10.00;;
58015;SDS011;43809;52.110;20.964;2023-02-15T02:14:42;20.20;;;9.07;;
58015;SDS011;43809;52.110;20.964;2023-02-15T02:16:51;20.60;;;11.13;;
58015;SDS011;43809;52.110;20.964;2023-02-15T02:28:42;22.55;;;11.15;;
58015;SDS011;43809;52.110;20.964;2023-02-15T02:39:44;16.13;;;8.40;;
58015;SDS011;43809;52.110;20.964;2023-02-15T02:42:02;20.52;;;9.80;;
58015;SDS011;43809;52.110;20.964;2023-02-15T02:44:07;16.67;;;9.48;;
58015;SDS011;43809;52.110;20.964;2023-02-15T02:46:13;19.52;;;8.70;;
58015;SDS011;43809;52.110;20.964;2023-02-15T02:48:16;15.10;;;8.40;;
58015;SDS011;43809;52.110;20.964;2023-02-15T02:50:22;19.15;;;9.38;;
58015;SDS011;43809;52.110;20.964;2023-02-15T02:52:37;19.80;;;9.63;;
58015;SDS011;43809;52.110;20.964;2023-02-15T02:54:38;16.95;;;8.60;;
58015;SDS011;43809;52.110;20.964;2023-02-15T02:56:40;15.63;;;8.60;;
58015;SDS011;43809;52.110;20.964;2023-02-15T02:58:45;21.02;;;10.25;;
58015;SDS011;43809;52.110;20.964;2023-02-15T03:03:00;23.38;;;11.70;;
58015;SDS011;43809;52.110;20.964;2023-02-15T03:05:06;21.33;;;10.60;;
58015;SDS011;43809;52.110;20.964;2023-02-15T03:07:12;25.75;;;11.20;;
58015;SDS011;43809;52.110;20.964;2023-02-15T03:09:15;17.58;;;9.55;;
58015;SDS011;43809;52.110;20.964;2023-02-15T03:11:18;16.63;;;8.52;;
58015;SDS011;43809;52.110;20.964;2023-02-15T03:13:18;15.23;;;8.13;;
58015;SDS011;43809;52.110;20.964;2023-02-15T03:15:20;14.57;;;7.78;;
58015;SDS011;43809;52.110;20.964;2023-02-15T03:17:21;17.83;;;9.15;;
58015;SDS011;43809;52.110;20.964;2023-02-15T03:19:23;16.47;;;8.67;;
58015;SDS011;43809;52.110;20.964;2023-02-15T03:21:30;21.60;;;10.07;;
58015;SDS011;43809;52.110;20.964;2023-02-15T03:23:31;31.85;;;14.02;;
58015;SDS011;43809;52.110;20.964;2023-02-15T03:25:33;26.42;;;12.40;;
58015;SDS011;43809;52.110;20.964;2023-02-15T03:27:40;27.40;;;13.45;;
58015;SDS011;43809;52.110;20.964;2023-02-15T03:29:44;34.33;;;16.25;;
58015;SDS011;43809;52.110;20.964;2023-02-15T03:33:55;25.85;;;12.63;;
58015;SDS011;43809;52.110;20.964;2023-02-15T03:36:01;23.95;;;11.50;;
58015;SDS011;43809;52.110;20.964;2023-02-15T03:38:02;27.20;;;14.43;;
58015;SDS011;43809;52.110;20.964;2023-02-15T03:40:06;27.33;;;12.63;;
58015;SDS011;43809;52.110;20.964;2023-02-15T03:42:32;24.00;;;11.65;;
58015;SDS011;43809;52.110;20.964;2023-02-15T03:44:36;23.73;;;10.70;;
58015;SDS011;43809;52.110;20.964;2023-02-15T03:46:48;22.50;;;11.13;;
58015;SDS011;43809;52.110;20.964;2023-02-15T03:48:53;28.52;;;13.38;;
58015;SDS011;43809;52.110;20.964;2023-02-15T03:50:58;30.30;;;14.65;;
58015;SDS011;43809;52.110;20.964;2023-02-15T03:53:20;29.08;;;12.80;;
58015;SDS011;43809;52.110;20.964;2023-02-15T03:55:21;27.45;;;13.00;;
58015;SDS011;43809;52.110;20.964;2023-02-15T03:57:23;25.05;;;12.20;;
58015;SDS011;43809;52.110;20.964;2023-02-15T03:59:42;29.67;;;13.77;;
58015;SDS011;43809;52.110;20.964;2023-02-15T04:02:21;22.80;;;11.40;;
58015;SDS011;43809;52.110;20.964;2023-02-15T04:04:31;22.45;;;11.30;;
58015;SDS011;43809;52.110;20.964;2023-02-15T04:06:32;19.17;;;9.38;;
58015;SDS011;43809;52.110;20.964;2023-02-15T04:08:32;21.97;;;9.53;;
58015;SDS011;43809;52.110;20.964;2023-02-15T04:10:51;20.85;;;10.73;;
58015;SDS011;43809;52.110;20.964;2023-02-15T04:12:57;18.88;;;9.52;;
58015;SDS011;43809;52.110;20.964;2023-02-15T04:14:57;18.55;;;8.90;;
58015;SDS011;43809;52.110;20.964;2023-02-15T04:17:16;17.25;;;8.20;;
58015;SDS011;43809;52.110;20.964;2023-02-15T04:19:17;14.02;;;7.05;;
58015;SDS011;43809;52.110;20.964;2023-02-15T04:21:35;18.83;;;8.48;;
58015;SDS011;43809;52.110;20.964;2023-02-15T04:23:54;19.60;;;10.07;;
58015;SDS011;43809;52.110;20.964;2023-02-15T04:26:13;20.98;;;10.52;;
58015;SDS011;43809;52.110;20.964;2023-02-15T04:28:14;22.85;;;11.05;;
58015;SDS011;43809;52.110;20.964;2023-02-15T04:30:16;19.70;;;10.17;;
58015;SDS011;43809;52.110;20.964;2023-02-15T04:32:16;19.00;;;9.30;;
58015;SDS011;43809;52.110;20.964;2023-02-15T04:34:16;19.33;;;10.00;;
58015;SDS011;43809;52.110;20.964;2023-02-15T04:36:16;24.30;;;10.77;;
58015;SDS011;43809;52.110;20.964;2023-02-15T04:38:17;22.48;;;11.32;;
58015;SDS011;43809;52.110;20.964;2023-02-15T04:40:17;19.48;;;9.63;;
58015;SDS011;43809;52.110;20.964;2023-02-15T04:42:17;20.98;;;10.07;;
58015;SDS011;43809;52.110;20.964;2023-02-15T04:44:18;16.75;;;8.63;;
58015;SDS011;43809;52.110;20.964;2023-02-15T04:46:18;15.98;;;7.72;;
58015;SDS011;43809;52.110;20.964;2023-02-15T04:48:18;16.58;;;8.48;;
58015;SDS011;43809;52.110;20.964;2023-02-15T04:50:18;19.67;;;9.13;;
58015;SDS011;43809;52.110;20.964;2023-02-15T04:52:18;17.40;;;9.32;;
58015;SDS011;43809;52.110;20.964;2023-02-15T04:54:19;15.90;;;8.48;;
58015;SDS011;43809;52.110;20.964;2023-02-15T04:56:19;17.33;;;8.48;;
58015;SDS011;43809;52.110;20.964;2023-02-15T04:58:20;17.30;;;8.27;;
58015;SDS011;43809;52.110;20.964;2023-02-15T05:00:20;13.73;;;7.20;;
58015;SDS011;43809;52.110;20.964;2023-02-15T05:02:20;12.95;;;6.75;;
58015;SDS011;43809;52.110;20.964;2023-02-15T05:04:20;17.08;;;8.65;;
58015;SDS011;43809;52.110;20.964;2023-02-15T05:06:21;20.20;;;9.95;;
58015;SDS011;43809;52.110;20.964;2023-02-15T05:08:21;20.13;;;10.60;;
58015;SDS011;43809;52.110;20.964;2023-02-15T05:10:21;24.85;;;11.40;;
58015;SDS011;43809;52.110;20.964;2023-02-15T05:12:21;24.13;;;11.85;;
58015;SDS011;43809;52.110;20.964;2023-02-15T05:14:21;26.50;;;12.60;;
58015;SDS011;43809;52.110;20.964;2023-02-15T05:16:22;24.25;;;12.45;;
58015;SDS011;43809;52.110;20.964;2023-02-15T05:18:22;24.20;;;10.73;;
58015;SDS011;43809;52.110;20.964;2023-02-15T05:20:25;21.13;;;10.57;;
58015;SDS011;43809;52.110;20.964;2023-02-15T05:22:25;23.88;;;11.20;;
58015;SDS011;43809;52.110;20.964;2023-02-15T05:24:25;21.27;;;10.60;;
58015;SDS011;43809;52.110;20.964;2023-02-15T05:26:44;23.00;;;11.55;;
58015;SDS011;43809;52.110;20.964;2023-02-15T05:29:03;22.75;;;10.90;;
58015;SDS011;43809;52.110;20.964;2023-02-15T05:33:03;20.63;;;10.23;;
58015;SDS011;43809;52.110;20.964;2023-02-15T05:35:06;18.67;;;9.93;;
58015;SDS011;43809;52.110;20.964;2023-02-15T05:37:06;19.88;;;9.82;;
58015;SDS011;43809;52.110;20.964;2023-02-15T05:39:07;15.45;;;7.13;;
58015;SDS011;43809;52.110;20.964;2023-02-15T05:41:08;16.25;;;8.15;;
58015;SDS011;43809;52.110;20.964;2023-02-15T05:43:09;16.58;;;8.18;;
58015;SDS011;43809;52.110;20.964;2023-02-15T05:45:09;18.58;;;8.93;;
58015;SDS011;43809;52.110;20.964;2023-02-15T05:47:09;17.35;;;8.38;;
58015;SDS011;43809;52.110;20.964;2023-02-15T05:49:10;17.10;;;8.10;;
58015;SDS011;43809;52.110;20.964;2023-02-15T05:51:10;15.13;;;8.07;;
58015;SDS011;43809;52.110;20.964;2023-02-15T05:53:12;19.20;;;9.70;;
58015;SDS011;43809;52.110;20.964;2023-02-15T05:55:13;18.15;;;9.10;;
58015;SDS011;43809;52.110;20.964;2023-02-15T05:57:13;19.63;;;9.50;;
58015;SDS011;43809;52.110;20.964;2023-02-15T05:59:13;18.25;;;8.45;;
58015;SDS011;43809;52.110;20.964;2023-02-15T06:01:14;16.33;;;8.30;;
58015;SDS011;43809;52.110;20.964;2023-02-15T06:03:15;17.60;;;7.67;;
58015;SDS011;43809;52.110;20.964;2023-02-15T06:05:15;17.50;;;8.77;;
58015;SDS011;43809;52.110;20.964;2023-02-15T06:07:15;16.45;;;8.18;;
58015;SDS011;43809;52.110;20.964;2023-02-15T06:09:16;20.40;;;10.03;;
58015;SDS011;43809;52.110;20.964;2023-02-15T06:11:18;26.27;;;11.73;;
58015;SDS011;43809;52.110;20.964;2023-02-15T06:13:18;27.50;;;11.95;;
58015;SDS011;43809;52.110;20.964;2023-02-15T06:15:18;27.20;;;12.47;;
58015;SDS011;43809;52.110;20.964;2023-02-15T06:17:18;29.30;;;12.40;;
58015;SDS011;43809;52.110;20.964;2023-02-15T06:19:19;31.05;;;13.32;;
58015;SDS011;43809;52.110;20.964;2023-02-15T06:21:19;32.22;;;13.38;;
58015;SDS011;43809;52.110;20.964;2023-02-15T06:23:26;27.50;;;12.25;;
58015;SDS011;43809;52.110;20.964;2023-02-15T06:25:26;25.85;;;11.43;;
58015;SDS011;43809;52.110;20.964;2023-02-15T06:27:26;23.67;;;10.83;;
58015;SDS011;43809;52.110;20.964;2023-02-15T06:29:26;20.58;;;10.27;;
58015;SDS011;43809;52.110;20.964;2023-02-15T06:31:27;23.83;;;10.77;;
58015;SDS011;43809;52.110;20.964;2023-02-15T06:33:27;23.80;;;11.50;;
58015;SDS011;43809;52.110;20.964;2023-02-15T06:35:27;27.45;;;11.80;;
58015;SDS011;43809;52.110;20.964;2023-02-15T06:37:27;25.63;;;11.38;;
58015;SDS011;43809;52.110;20.964;2023-02-15T06:39:28;25.80;;;11.93;;
58015;SDS011;43809;52.110;20.964;2023-02-15T06:41:28;25.23;;;11.48;;
58015;SDS011;43809;52.110;20.964;2023-02-15T06:43:28;27.80;;;12.57;;
58015;SDS011;43809;52.110;20.964;2023-02-15T06:45:28;27.40;;;11.73;;
58015;SDS011;43809;52.110;20.964;2023-02-15T06:47:28;24.42;;;11.20;;
58015;SDS011;43809;52.110;20.964;2023-02-15T06:49:28;24.00;;;10.85;;
58015;SDS011;43809;52.110;20.964;2023-02-15T06:51:29;24.15;;;10.52;;
58015;SDS011;43809;52.110;20.964;2023-02-15T06:53:29;22.38;;;9.80;;
58015;SDS011;43809;52.110;20.964;2023-02-15T06:55:29;21.05;;;10.18;;
58015;SDS011;43809;52.110;20.964;2023-02-15T06:57:29;21.98;;;10.52;;
58015;SDS011;43809;52.110;20.964;2023-02-15T06:59:30;22.08;;;9.95;;
58015;SDS011;43809;52.110;20.964;2023-02-15T07:01:30;22.25;;;10.65;;
58015;SDS011;43809;52.110;20.964;2023-02-15T07:03:30;20.57;;;9.50;;
58015;SDS011;43809;52.110;20.964;2023-02-15T07:05:32;22.58;;;10.13;;
58015;SDS011;43809;52.110;20.964;2023-02-15T07:07:32;20.55;;;10.00;;
58015;SDS011;43809;52.110;20.964;2023-02-15T07:09:33;21.35;;;9.55;;
58015;SDS011;43809;52.110;20.964;2023-02-15T07:11:33;19.92;;;8.40;;
58015;SDS011;43809;52.110;20.964;2023-02-15T07:13:52;14.63;;;6.65;;
58015;SDS011;43809;52.110;20.964;2023-02-15T07:15:52;15.93;;;7.85;;
58015;SDS011;43809;52.110;20.964;2023-02-15T07:17:52;14.65;;;7.45;;
58015;SDS011;43809;52.110;20.964;2023-02-15T07:19:52;19.35;;;9.60;;
58015;SDS011;43809;52.110;20.964;2023-02-15T07:21:53;22.80;;;11.53;;
58015;SDS011;43809;52.110;20.964;2023-02-15T07:23:55;23.52;;;10.45;;
58015;SDS011;43809;52.110;20.964;2023-02-15T07:25:56;24.60;;;11.05;;
58015;SDS011;43809;52.110;20.964;2023-02-15T07:28:00;21.63;;;9.90;;
58015;SDS011;43809;52.110;20.964;2023-02-15T07:30:01;16.58;;;8.18;;
58015;SDS011;43809;52.110;20.964;2023-02-15T07:32:01;18.02;;;8.70;;
58015;SDS011;43809;52.110;20.964;2023-02-15T07:34:01;19.03;;;9.67;;
58015;SDS011;43809;52.110;20.964;2023-02-15T07:36:02;19.70;;;9.93;;
58015;SDS011;43809;52.110;20.964;2023-02-15T07:38:02;21.60;;;10.52;;
58015;SDS011;43809;52.110;20.964;2023-02-15T07:40:03;21.42;;;10.18;;
58015;SDS011;43809;52.110;20.964;2023-02-15T07:42:03;19.73;;;9.50;;
58015;SDS011;43809;52.110;20.964;2023-02-15T07:44:04;17.63;;;8.93;;
58015;SDS011;43809;52.110;20.964;2023-02-15T07:46:08;16.85;;;8.30;;
58015;SDS011;43809;52.110;20.964;2023-02-15T07:48:09;21.60;;;9.48;;
58015;SDS011;43809;52.110;20.964;2023-02-15T07:50:09;18.75;;;9.43;;
58015;SDS011;43809;52.110;20.964;2023-02-15T07:52:09;20.58;;;10.25;;
58015;SDS011;43809;52.110;20.964;2023-02-15T07:54:09;19.33;;;9.32;;
58015;SDS011;43809;52.110;20.964;2023-02-15T07:56:10;21.80;;;9.40;;
58015;SDS011;43809;52.110;20.964;2023-02-15T07:58:11;17.38;;;8.32;;
58015;SDS011;43809;52.110;20.964;2023-02-15T08:00:12;15.75;;;7.68;;
58015;SDS011;43809;52.110;20.964;2023-02-15T08:02:13;17.13;;;8.40;;
58015;SDS011;43809;52.110;20.964;2023-02-15T08:04:13;17.95;;;8.82;;
58015;SDS011;43809;52.110;20.964;2023-02-15T08:06:13;20.38;;;9.38;;
58015;SDS011;43809;52.110;20.964;2023-02-15T08:08:13;23.65;;;10.77;;
58015;SDS011;43809;52.110;20.964;2023-02-15T08:10:29;23.42;;;10.63;;
58015;SDS011;43809;52.110;20.964;2023-02-15T08:12:48;23.25;;;10.95;;
58015;SDS011;43809;52.110;20.964;2023-02-15T08:14:48;21.27;;;9.93;;
58015;SDS011;43809;52.110;20.964;2023-02-15T08:16:55;18.45;;;8.68;;
58015;SDS011;43809;52.110;20.964;2023-02-15T08:18:56;20.58;;;9.25;;
58015;SDS011;43809;52.110;20.964;2023-02-15T08:20:57;19.60;;;8.98;;
58015;SDS011;43809;52.110;20.964;2023-02-15T08:22:58;23.80;;;10.53;;
58015;SDS011;43809;52.110;20.964;2023-02-15T08:24:58;23.05;;;9.00;;
58015;SDS011;43809;52.110;20.964;2023-02-15T08:26:59;20.08;;;8.63;;
58015;SDS011;43809;52.110;20.964;2023-02-15T08:29:02;20.48;;;9.02;;
58015;SDS011;43809;52.110;20.964;2023-02-15T08:31:04;23.35;;;9.73;;
58015;SDS011;43809;52.110;20.964;2023-02-15T08:33:04;21.30;;;9.10;;
58015;SDS011;43809;52.110;20.964;2023-02-15T08:35:05;24.13;;;10.20;;
58015;SDS011;43809;52.110;20.964;2023-02-15T08:37:05;23.10;;;10.05;;
58015;SDS011;43809;52.110;20.964;2023-02-15T08:39:06;20.52;;;9.02;;
58015;SDS011;43809;52.110;20.964;2023-02-15T08:41:10;17.73;;;7.70;;
58015;SDS011;43809;52.110;20.964;2023-02-15T08:43:10;17.42;;;7.95;;
58015;SDS011;43809;52.110;20.964;2023-02-15T08:45:11;14.43;;;7.55;;
58015;SDS011;43809;52.110;20.964;2023-02-15T08:47:13;14.25;;;6.93;;
58015;SDS011;43809;52.110;20.964;2023-02-15T08:49:15;16.50;;;6.90;;
58015;SDS011;43809;52.110;20.964;2023-02-15T08:51:20;13.48;;;6.68;;
58015;SDS011;43809;52.110;20.964;2023-02-15T08:53:21;18.55;;;8.30;;
58015;SDS011;43809;52.110;20.964;2023-02-15T08:55:21;16.75;;;7.93;;
58015;SDS011;43809;52.110;20.964;2023-02-15T08:57:24;19.23;;;8.90;;
58015;SDS011;43809;52.110;20.964;2023-02-15T08:59:25;15.80;;;7.88;;
58015;SDS011;43809;52.110;20.964;2023-02-15T09:01:30;18.03;;;8.47;;
58015;SDS011;43809;52.110;20.964;2023-02-15T09:03:31;20.80;;;9.88;;
58015;SDS011;43809;52.110;20.964;2023-02-15T09:05:31;23.63;;;11.05;;
58015;SDS011;43809;52.110;20.964;2023-02-15T09:07:31;25.05;;;11.02;;
58015;SDS011;43809;52.110;20.964;2023-02-15T09:09:33;21.10;;;9.77;;
58015;SDS011;43809;52.110;20.964;2023-02-15T09:11:35;24.83;;;11.18;;
58015;SDS011;43809;52.110;20.964;2023-02-15T09:13:36;20.00;;;9.20;;
58015;SDS011;43809;52.110;20.964;2023-02-15T09:15:36;20.45;;;9.43;;
58015;SDS011;43809;52.110;20.964;2023-02-15T09:17:37;20.80;;;9.32;;
58015;SDS011;43809;52.110;20.964;2023-02-15T09:19:37;21.08;;;10.13;;
58015;SDS011;43809;52.110;20.964;2023-02-15T09:21:37;18.58;;;8.95;;
58015;SDS011;43809;52.110;20.964;2023-02-15T09:23:38;18.00;;;9.35;;
58015;SDS011;43809;52.110;20.964;2023-02-15T09:25:38;17.83;;;8.37;;
58015;SDS011;43809;52.110;20.964;2023-02-15T09:27:38;17.88;;;8.60;;
58015;SDS011;43809;52.110;20.964;2023-02-15T09:29:40;16.63;;;8.63;;
58015;SDS011;43809;52.110;20.964;2023-02-15T09:31:44;16.23;;;8.73;;
58015;SDS011;43809;52.110;20.964;2023-02-15T09:33:45;17.05;;;8.70;;
58015;SDS011;43809;52.110;20.964;2023-02-15T09:35:45;22.27;;;9.85;;
58015;SDS011;43809;52.110;20.964;2023-02-15T09:37:46;19.05;;;8.60;;
58015;SDS011;43809;52.110;20.964;2023-02-15T09:39:46;16.80;;;8.25;;
58015;SDS011;43809;52.110;20.964;2023-02-15T09:43:54;21.30;;;9.90;;
58015;SDS011;43809;52.110;20.964;2023-02-15T09:46:09;20.33;;;9.55;;
58015;SDS011;43809;52.110;20.964;2023-02-15T09:54:38;18.35;;;8.35;;
58015;SDS011;43809;52.110;20.964;2023-02-15T09:56:53;18.58;;;8.25;;
58015;SDS011;43809;52.110;20.964;2023-02-15T10:05:18;15.65;;;8.00;;
58015;SDS011;43809;52.110;20.964;2023-02-15T10:07:26;20.08;;;9.95;;
58015;SDS011;43809;52.110;20.964;2023-02-15T10:13:44;19.73;;;8.80;;
58015;SDS011;43809;52.110;20.964;2023-02-15T10:22:02;15.48;;;7.45;;
58015;SDS011;43809;52.110;20.964;2023-02-15T10:24:11;18.77;;;9.43;;
58015;SDS011;43809;52.110;20.964;2023-02-15T10:26:18;22.85;;;11.27;;
58015;SDS011;43809;52.110;20.964;2023-02-15T10:28:20;21.55;;;10.40;;
58015;SDS011;43809;52.110;20.964;2023-02-15T10:30:46;21.27;;;10.10;;
58015;SDS011;43809;52.110;20.964;2023-02-15T10:32:50;21.75;;;10.55;;
58015;SDS011;43809;52.110;20.964;2023-02-15T10:41:24;23.45;;;10.88;;
58015;SDS011;43809;52.110;20.964;2023-02-15T10:45:33;29.70;;;13.30;;
58015;SDS011;43809;52.110;20.964;2023-02-15T10:56:18;29.48;;;13.60;;
58015;SDS011;43809;52.110;20.964;2023-02-15T11:00:32;32.50;;;14.32;;
58015;SDS011;43809;52.110;20.964;2023-02-15T11:06:49;29.10;;;12.35;;
58015;SDS011;43809;52.110;20.964;2023-02-15T11:09:02;36.50;;;14.90;;
58015;SDS011;43809;52.110;20.964;2023-02-15T11:11:05;32.83;;;15.13;;
58015;SDS011;43809;52.110;20.964;2023-02-15T11:13:11;28.45;;;13.20;;
58015;SDS011;43809;52.110;20.964;2023-02-15T11:17:24;29.08;;;14.10;;
58015;SDS011;43809;52.110;20.964;2023-02-15T11:19:30;33.40;;;13.93;;
58015;SDS011;43809;52.110;20.964;2023-02-15T11:21:36;30.40;;;12.75;;
58015;SDS011;43809;52.110;20.964;2023-02-15T11:23:40;33.72;;;14.75;;
58015;SDS011;43809;52.110;20.964;2023-02-15T11:25:42;33.25;;;15.27;;
58015;SDS011;43809;52.110;20.964;2023-02-15T11:27:43;31.33;;;14.65;;
58015;SDS011;43809;52.110;20.964;2023-02-15T11:30:02;25.83;;;12.40;;
58015;SDS011;43809;52.110;20.964;2023-02-15T11:32:51;32.90;;;14.85;;
58015;SDS011;43809;52.110;20.964;2023-02-15T11:36:33;35.33;;;15.68;;
58015;SDS011;43809;52.110;20.964;2023-02-15T11:38:34;37.88;;;17.27;;
58015;SDS011;43809;52.110;20.964;2023-02-15T11:40:41;35.67;;;16.10;;
58015;SDS011;43809;52.110;20.964;2023-02-15T11:42:42;35.72;;;15.95;;
58015;SDS011;43809;52.110;20.964;2023-02-15T11:44:56;35.38;;;15.77;;
58015;SDS011;43809;52.110;20.964;2023-02-15T11:46:57;32.25;;;14.27;;
58015;SDS011;43809;52.110;20.964;2023-02-15T11:48:58;36.95;;;15.88;;
58015;SDS011;43809;52.110;20.964;2023-02-15T11:50:58;33.13;;;15.80;;
58015;SDS011;43809;52.110;20.964;2023-02-15T11:53:00;37.85;;;17.33;;
58015;SDS011;43809;52.110;20.964;2023-02-15T11:55:01;36.47;;;16.67;;
58015;SDS011;43809;52.110;20.964;2023-02-15T11:57:23;34.72;;;16.38;;
58015;SDS011;43809;52.110;20.964;2023-02-15T11:59:27;33.38;;;15.82;;
58015;SDS011;43809;52.110;20.964;2023-02-15T12:03:51;43.42;;;18.77;;
58015;SDS011;43809;52.110;20.964;2023-02-15T12:05:52;40.10;;;18.00;;
58015;SDS011;43809;52.110;20.964;2023-02-15T12:07:57;43.00;;;17.60;;
58015;SDS011;43809;52.110;20.964;2023-02-15T12:12:24;36.53;;;15.90;;
58015;SDS011;43809;52.110;20.964;2023-02-15T12:14:24;40.70;;;17.00;;
58015;SDS011;43809;52.110;20.964;2023-02-15T12:16:25;38.60;;;18.10;;
58015;SDS011;43809;52.110;20.964;2023-02-15T12:18:47;37.60;;;17.60;;
58015;SDS011;43809;52.110;20.964;2023-02-15T12:20:46;40.33;;;16.90;;
58015;SDS011;43809;52.110;20.964;2023-02-15T12:22:50;38.42;;;17.65;;
58015;SDS011;43809;52.110;20.964;2023-02-15T12:24:52;36.70;;;16.17;;
58015;SDS011;43809;52.110;20.964;2023-02-15T12:29:15;37.78;;;16.55;;
58015;SDS011;43809;52.110;20.964;2023-02-15T12:31:20;36.70;;;16.85;;
58015;SDS011;43809;52.110;20.964;2023-02-15T12:33:25;45.47;;;18.58;;
58015;SDS011;43809;52.110;20.964;2023-02-15T12:35:32;36.88;;;17.35;;
58015;SDS011;43809;52.110;20.964;2023-02-15T12:37:34;36.20;;;17.05;;
58015;SDS011;43809;52.110;20.964;2023-02-15T12:39:34;38.33;;;17.20;;
58015;SDS011;43809;52.110;20.964;2023-02-15T12:41:36;41.42;;;18.65;;
58015;SDS011;43809;52.110;20.964;2023-02-15T12:43:37;39.42;;;17.45;;
58015;SDS011;43809;52.110;20.964;2023-02-15T12:45:37;38.70;;;16.83;;
58015;SDS011;43809;52.110;20.964;2023-02-15T12:47:38;40.30;;;18.20;;
58015;SDS011;43809;52.110;20.964;2023-02-15T12:49:38;41.60;;;17.92;;
58015;SDS011;43809;52.110;20.964;2023-02-15T12:51:42;39.80;;;18.08;;
58015;SDS011;43809;52.110;20.964;2023-02-15T12:53:43;34.28;;;16.10;;
58015;SDS011;43809;52.110;20.964;2023-02-15T12:55:56;31.48;;;14.38;;
58015;SDS011;43809;52.110;20.964;2023-02-15T13:02:26;30.98;;;14.05;;
58015;SDS011;43809;52.110;20.964;2023-02-15T13:04:28;33.72;;;15.05;;
58015;SDS011;43809;52.110;20.964;2023-02-15T13:06:29;40.78;;;17.77;;
58015;SDS011;43809;52.110;20.964;2023-02-15T13:08:31;43.70;;;18.45;;
58015;SDS011;43809;52.110;20.964;2023-02-15T13:10:35;36.85;;;16.65;;
58015;SDS011;43809;52.110;20.964;2023-02-15T13:14:35;39.72;;;16.27;;
58015;SDS011;43809;52.110;20.964;2023-02-15T13:16:37;37.90;;;16.73;;
58015;SDS011;43809;52.110;20.964;2023-02-15T13:18:38;38.47;;;18.30;;
58015;SDS011;43809;52.110;20.964;2023-02-15T13:20:39;44.15;;;19.27;;
58015;SDS011;43809;52.110;20.964;2023-02-15T13:22:41;45.33;;;19.53;;
58015;SDS011;43809;52.110;20.964;2023-02-15T13:26:43;42.50;;;17.33;;